sensor_id;sensor_type;location;lat;lon;timestamp;pressure;altitude;pressure_sealevel;temperature;humidity
7407;BME280;3745;56.964;24.128;2023-05-02T00:00:49;101291.56;;;8.68;100.00
7407;BME280;3745;56.964;24.128;2023-05-02T00:03:15;101285.66;;;8.67;100.00
7407;BME280;3745;56.964;24.128;2023-05-02T00:05:41;101251.44;;;8.46;100.00
7407;BME280;3745;56.964;24.128;2023-05-02T00:08:10;101289.03;;;8.68;100.00
7407;BME280;3745;56.964;24.128;2023-05-02T00:10:37;101164.03;;;7.91;100.00
7407;BME280;3745;56.964;24.128;2023-05-02T00:13:02;101240.50;;;8.47;100.00
7407;BME280;3745;56.964;24.128;2023-05-02T00:15:28;101112.03;;;7.65;100.00
7407;BME280;3745;56.964;24.128;2023-05-02T00:17:54;101089.28;;;7.62;100.00
7407;BME280;3745;56.964;24.128;2023-05-02T00:20:19;101115.91;;;7.82;100.00
7407;BME280;3745;56.964;24.128;2023-05-02T00:22:48;101265.78;;;8.78;100.00
7407;BME280;3745;56.964;24.128;2023-05-02T00:25:14;101070.19;;;7.70;100.00
7407;BME280;3745;56.964;24.128;2023-05-02T00:27:42;101173.63;;;8.31;100.00
7407;BME280;3745;56.964;24.128;2023-05-02T00:30:11;101008.69;;;7.34;100.00
7407;BME280;3745;56.964;24.128;2023-05-02T00:32:36;101247.97;;;8.72;100.00
7407;BME280;3745;56.964;24.128;2023-05-02T00:35:02;101239.34;;;8.64;100.00
7407;BME280;3745;56.964;24.128;2023-05-02T00:37:28;101243.69;;;8.69;100.00
7407;BME280;3745;56.964;24.128;2023-05-02T00:39:54;101242.91;;;8.72;100.00
7407;BME280;3745;56.964;24.128;2023-05-02T00:42:19;101130.22;;;8.11;100.00
7407;BME280;3745;56.964;24.128;2023-05-02T00:44:45;101237.94;;;8.75;100.00
7407;BME280;3745;56.964;24.128;2023-05-02T00:47:11;101019.13;;;7.46;100.00
7407;BME280;3745;56.964;24.128;2023-05-02T00:49:38;101229.41;;;8.70;100.00
7407;BME280;3745;56.964;24.128;2023-05-02T00:52:04;101154.25;;;8.29;100.00
7407;BME280;3745;56.964;24.128;2023-05-02T00:54:30;101174.66;;;8.38;100.00
7407;BME280;3745;56.964;24.128;2023-05-02T00:56:57;101171.44;;;8.42;100.00
7407;BME280;3745;56.964;24.128;2023-05-02T00:59:24;101190.06;;;8.47;100.00
7407;BME280;3745;56.964;24.128;2023-05-02T01:04:42;101214.09;;;8.64;100.00
7407;BME280;3745;56.964;24.128;2023-05-02T01:10:47;101092.78;;;7.95;100.00
7407;BME280;3745;56.964;24.128;2023-05-02T01:13:19;101209.06;;;8.64;100.00
7407;BME280;3745;56.964;24.128;2023-05-02T01:15:47;101211.59;;;8.65;100.00
7407;BME280;3745;56.964;24.128;2023-05-02T01:18:15;101004.69;;;7.40;100.00
7407;BME280;3745;56.964;24.128;2023-05-02T01:20:43;101084.72;;;7.79;100.00
7407;BME280;3745;56.964;24.128;2023-05-02T01:26:23;101198.88;;;8.61;100.00
7407;BME280;3745;56.964;24.128;2023-05-02T01:29:03;101190.31;;;8.56;100.00
7407;BME280;3745;56.964;24.128;2023-05-02T01:31:41;101202.28;;;8.63;100.00
7407;BME280;3745;56.964;24.128;2023-05-02T01:34:11;101192.28;;;8.66;100.00
7407;BME280;3745;56.964;24.128;2023-05-02T01:36:41;101084.66;;;8.05;100.00
7407;BME280;3745;56.964;24.128;2023-05-02T01:39:10;101074.41;;;7.99;100.00
7407;BME280;3745;56.964;24.128;2023-05-02T01:41:39;101180.56;;;8.68;100.00
7407;BME280;3745;56.964;24.128;2023-05-02T01:44:06;100990.78;;;7.53;100.00
7407;BME280;3745;56.964;24.128;2023-05-02T01:46:38;101056.84;;;8.02;100.00
7407;BME280;3745;56.964;24.128;2023-05-02T01:49:08;101018.38;;;7.78;100.00
7407;BME280;3745;56.964;24.128;2023-05-02T01:51:42;101003.84;;;7.70;100.00
7407;BME280;3745;56.964;24.128;2023-05-02T01:54:12;100968.47;;;7.65;100.00
7407;BME280;3745;56.964;24.128;2023-05-02T01:56:38;101083.53;;;8.26;100.00
7407;BME280;3745;56.964;24.128;2023-05-02T01:59:07;101163.97;;;8.76;100.00
7407;BME280;3745;56.964;24.128;2023-05-02T02:01:35;101164.91;;;8.80;100.00
7407;BME280;3745;56.964;24.128;2023-05-02T02:04:01;101147.28;;;8.81;100.00
7407;BME280;3745;56.964;24.128;2023-05-02T02:06:32;101154.44;;;8.97;100.00
7407;BME280;3745;56.964;24.128;2023-05-02T02:08:58;101146.09;;;9.01;100.00
7407;BME280;3745;56.964;24.128;2023-05-02T02:11:28;101135.41;;;9.10;100.00
7407;BME280;3745;56.964;24.128;2023-05-02T02:14:36;101111.59;;;9.00;100.00
7407;BME280;3745;56.964;24.128;2023-05-02T02:17:12;101102.31;;;8.99;100.00
7407;BME280;3745;56.964;24.128;2023-05-02T02:19:40;101132.25;;;9.18;100.00
7407;BME280;3745;56.964;24.128;2023-05-02T02:22:10;100974.31;;;8.27;100.00
7407;BME280;3745;56.964;24.128;2023-05-02T02:24:41;101080.41;;;8.98;100.00
7407;BME280;3745;56.964;24.128;2023-05-02T02:27:11;101088.16;;;9.06;100.00
7407;BME280;3745;56.964;24.128;2023-05-02T02:29:36;100953.13;;;8.20;100.00
7407;BME280;3745;56.964;24.128;2023-05-02T02:32:02;101029.34;;;8.74;100.00
7407;BME280;3745;56.964;24.128;2023-05-02T02:34:27;101113.19;;;9.33;100.00
7407;BME280;3745;56.964;24.128;2023-05-02T02:37:46;101024.28;;;8.74;100.00
7407;BME280;3745;56.964;24.128;2023-05-02T02:40:10;101117.44;;;9.34;100.00
7407;BME280;3745;56.964;24.128;2023-05-02T02:54:05;101107.69;;;9.47;100.00
7407;BME280;3745;56.964;24.128;2023-05-02T02:56:45;101108.34;;;9.42;100.00
7407;BME280;3745;56.964;24.128;2023-05-02T02:59:19;100936.84;;;8.40;100.00
7407;BME280;3745;56.964;24.128;2023-05-02T03:01:58;101090.72;;;9.43;100.00
7407;BME280;3745;56.964;24.128;2023-05-02T03:04:30;100862.66;;;7.96;100.00
7407;BME280;3745;56.964;24.128;2023-05-02T03:06:57;100843.66;;;7.76;100.00
7407;BME280;3745;56.964;24.128;2023-05-02T03:09:23;101092.84;;;9.26;100.00
7407;BME280;3745;56.964;24.128;2023-05-02T03:11:57;101035.13;;;9.04;100.00
7407;BME280;3745;56.964;24.128;2023-05-02T03:14:26;101093.91;;;9.35;100.00
7407;BME280;3745;56.964;24.128;2023-05-02T03:16:52;101084.75;;;9.40;100.00
7407;BME280;3745;56.964;24.128;2023-05-02T03:19:17;100989.88;;;8.76;100.00
7407;BME280;3745;56.964;24.128;2023-05-02T03:21:46;100869.69;;;8.09;100.00
7407;BME280;3745;56.964;24.128;2023-05-02T03:24:12;100875.78;;;8.17;100.00
7407;BME280;3745;56.964;24.128;2023-05-02T03:26:37;100916.75;;;8.43;100.00
7407;BME280;3745;56.964;24.128;2023-05-02T03:29:03;101024.25;;;9.07;100.00
7407;BME280;3745;56.964;24.128;2023-05-02T03:31:29;101085.09;;;9.55;100.00
7407;BME280;3745;56.964;24.128;2023-05-02T03:33:55;100919.91;;;8.69;100.00
7407;BME280;3745;56.964;24.128;2023-05-02T03:36:21;100966.78;;;8.97;100.00
7407;BME280;3745;56.964;24.128;2023-05-02T03:38:47;100892.75;;;8.59;100.00
7407;BME280;3745;56.964;24.128;2023-05-02T03:41:12;101025.97;;;9.47;100.00
7407;BME280;3745;56.964;24.128;2023-05-02T03:43:44;101065.06;;;9.64;100.00
7407;BME280;3745;56.964;24.128;2023-05-02T03:46:15;100904.81;;;8.72;100.00
7407;BME280;3745;56.964;24.128;2023-05-02T03:48:44;101068.56;;;9.69;100.00
7407;BME280;3745;56.964;24.128;2023-05-02T03:51:12;100761.75;;;7.92;100.00
7407;BME280;3745;56.964;24.128;2023-05-02T03:53:43;101026.03;;;9.50;100.00
7407;BME280;3745;56.964;24.128;2023-05-02T03:56:09;100898.25;;;8.80;100.00
7407;BME280;3745;56.964;24.128;2023-05-02T03:58:35;101060.34;;;9.79;100.00
7407;BME280;3745;56.964;24.128;2023-05-02T04:01:03;100944.53;;;9.16;100.00
7407;BME280;3745;56.964;24.128;2023-05-02T04:03:31;100889.16;;;8.87;100.00
7407;BME280;3745;56.964;24.128;2023-05-02T04:05:57;100874.00;;;8.85;100.00
7407;BME280;3745;56.964;24.128;2023-05-02T04:08:23;100885.47;;;9.11;100.00
7407;BME280;3745;56.964;24.128;2023-05-02T04:10:50;101028.84;;;10.05;100.00
7407;BME280;3745;56.964;24.128;2023-05-02T04:13:17;100956.31;;;9.58;100.00
7407;BME280;3745;56.964;24.128;2023-05-02T04:15:44;101001.06;;;10.07;100.00
7407;BME280;3745;56.964;24.128;2023-05-02T04:18:09;101043.03;;;10.41;100.00
7407;BME280;3745;56.964;24.128;2023-05-02T04:20:35;101045.81;;;10.54;100.00
7407;BME280;3745;56.964;24.128;2023-05-02T04:23:01;100895.03;;;9.68;100.00
7407;BME280;3745;56.964;24.128;2023-05-02T04:25:27;100791.44;;;9.21;100.00
7407;BME280;3745;56.964;24.128;2023-05-02T04:27:53;100999.31;;;10.48;100.00
7407;BME280;3745;56.964;24.128;2023-05-02T04:30:21;100873.31;;;9.79;100.00
7407;BME280;3745;56.964;24.128;2023-05-02T04:32:50;101032.75;;;10.79;100.00
7407;BME280;3745;56.964;24.128;2023-05-02T04:35:19;100859.25;;;9.93;100.00
7407;BME280;3745;56.964;24.128;2023-05-02T04:37:44;100791.97;;;9.52;100.00
7407;BME280;3745;56.964;24.128;2023-05-02T04:40:10;100937.06;;;10.59;100.00
7407;BME280;3745;56.964;24.128;2023-05-02T04:42:36;101025.56;;;11.08;100.00
7407;BME280;3745;56.964;24.128;2023-05-02T04:45:02;100925.13;;;10.50;100.00
7407;BME280;3745;56.964;24.128;2023-05-02T04:47:31;101030.78;;;11.17;100.00
7407;BME280;3745;56.964;24.128;2023-05-02T04:49:57;100749.91;;;9.54;100.00
7407;BME280;3745;56.964;24.128;2023-05-02T04:52:22;100794.25;;;9.86;100.00
7407;BME280;3745;56.964;24.128;2023-05-02T04:54:48;100872.72;;;10.43;100.00
7407;BME280;3745;56.964;24.128;2023-05-02T04:57:14;100803.03;;;10.09;100.00
7407;BME280;3745;56.964;24.128;2023-05-02T04:59:43;100870.31;;;10.52;100.00
7407;BME280;3745;56.964;24.128;2023-05-02T05:02:11;100838.69;;;10.24;100.00
7407;BME280;3745;56.964;24.128;2023-05-02T05:04:37;100856.06;;;10.59;100.00
7407;BME280;3745;56.964;24.128;2023-05-02T05:07:02;100876.53;;;10.74;100.00
7407;BME280;3745;56.964;24.128;2023-05-02T05:09:32;101005.91;;;11.51;100.00
7407;BME280;3745;56.964;24.128;2023-05-02T05:11:57;100999.28;;;11.62;100.00
7407;BME280;3745;56.964;24.128;2023-05-02T05:14:23;100945.00;;;11.44;100.00
7407;BME280;3745;56.964;24.128;2023-05-02T05:16:49;100921.16;;;11.27;100.00
7407;BME280;3745;56.964;24.128;2023-05-02T05:19:17;100893.88;;;11.08;100.00
7407;BME280;3745;56.964;24.128;2023-05-02T05:21:43;100992.81;;;11.85;100.00
7407;BME280;3745;56.964;24.128;2023-05-02T05:24:09;100940.03;;;11.54;100.00
7407;BME280;3745;56.964;24.128;2023-05-02T05:26:35;100928.31;;;11.62;100.00
7407;BME280;3745;56.964;24.128;2023-05-02T05:29:04;100765.19;;;10.77;100.00
7407;BME280;3745;56.964;24.128;2023-05-02T05:31:30;100911.47;;;11.67;100.00
7407;BME280;3745;56.964;24.128;2023-05-02T05:33:56;100744.88;;;10.71;100.00
7407;BME280;3745;56.964;24.128;2023-05-02T05:36:21;100971.13;;;12.11;100.00
7407;BME280;3745;56.964;24.128;2023-05-02T05:38:53;100983.19;;;12.33;100.00
7407;BME280;3745;56.964;24.128;2023-05-02T05:41:19;100981.63;;;12.47;100.00
7407;BME280;3745;56.964;24.128;2023-05-02T05:43:47;100990.28;;;12.72;100.00
7407;BME280;3745;56.964;24.128;2023-05-02T05:46:13;100897.66;;;12.23;100.00
7407;BME280;3745;56.964;24.128;2023-05-02T05:48:41;100900.97;;;12.13;100.00
7407;BME280;3745;56.964;24.128;2023-05-02T05:51:07;100868.56;;;11.83;100.00
7407;BME280;3745;56.964;24.128;2023-05-02T05:53:32;100951.06;;;12.35;100.00
7407;BME280;3745;56.964;24.128;2023-05-02T05:55:58;100991.94;;;12.69;100.00
7407;BME280;3745;56.964;24.128;2023-05-02T05:58:24;100737.13;;;11.35;100.00
7407;BME280;3745;56.964;24.128;2023-05-02T06:00:50;100869.72;;;12.20;100.00
7407;BME280;3745;56.964;24.128;2023-05-02T06:03:16;100986.13;;;12.82;100.00
7407;BME280;3745;56.964;24.128;2023-05-02T06:05:47;100854.47;;;12.14;100.00
7407;BME280;3745;56.964;24.128;2023-05-02T06:08:12;100970.19;;;13.01;100.00
7407;BME280;3745;56.964;24.128;2023-05-02T06:10:38;100939.44;;;12.68;100.00
7407;BME280;3745;56.964;24.128;2023-05-02T06:13:07;100755.91;;;11.56;100.00
7407;BME280;3745;56.964;24.128;2023-05-02T06:15:35;100818.88;;;12.05;100.00
7407;BME280;3745;56.964;24.128;2023-05-02T06:18:03;100761.22;;;11.83;100.00
7407;BME280;3745;56.964;24.128;2023-05-02T06:20:29;100787.53;;;12.00;100.00
7407;BME280;3745;56.964;24.128;2023-05-02T06:22:55;100967.75;;;13.21;100.00
7407;BME280;3745;56.964;24.128;2023-05-02T06:25:20;100934.72;;;13.16;100.00
7407;BME280;3745;56.964;24.128;2023-05-02T06:27:46;100718.16;;;11.90;100.00
7407;BME280;3745;56.964;24.128;2023-05-02T06:30:12;100961.91;;;13.38;100.00
7407;BME280;3745;56.964;24.128;2023-05-02T06:32:50;100951.69;;;13.23;100.00
7407;BME280;3745;56.964;24.128;2023-05-02T06:35:15;100734.22;;;11.94;100.00
7407;BME280;3745;56.964;24.128;2023-05-02T06:37:50;100785.31;;;12.42;100.00
7407;BME280;3745;56.964;24.128;2023-05-02T06:40:21;100858.34;;;12.92;100.00
7407;BME280;3745;56.964;24.128;2023-05-02T06:42:49;100816.06;;;13.06;100.00
7407;BME280;3745;56.964;24.128;2023-05-02T06:45:22;100790.66;;;13.06;100.00
7407;BME280;3745;56.964;24.128;2023-05-02T06:47:48;100733.00;;;12.90;100.00
7407;BME280;3745;56.964;24.128;2023-05-02T06:50:14;100726.28;;;12.95;100.00
7407;BME280;3745;56.964;24.128;2023-05-02T06:52:40;100710.97;;;12.83;100.00
7407;BME280;3745;56.964;24.128;2023-05-02T06:55:07;100944.34;;;14.17;100.00
7407;BME280;3745;56.964;24.128;2023-05-02T06:57:33;100700.75;;;12.65;100.00
7407;BME280;3745;56.964;24.128;2023-05-02T06:59:58;100824.63;;;13.32;100.00
7407;BME280;3745;56.964;24.128;2023-05-02T07:02:24;100828.84;;;13.21;100.00
7407;BME280;3745;56.964;24.128;2023-05-02T07:04:53;100918.84;;;13.90;100.00
7407;BME280;3745;56.964;24.128;2023-05-02T07:07:21;100789.00;;;13.20;100.00
7407;BME280;3745;56.964;24.128;2023-05-02T07:09:47;100924.81;;;14.13;100.00
7407;BME280;3745;56.964;24.128;2023-05-02T07:12:13;100726.28;;;12.95;100.00
7407;BME280;3745;56.964;24.128;2023-05-02T07:14:40;100836.56;;;13.73;100.00
7407;BME280;3745;56.964;24.128;2023-05-02T07:17:09;100923.16;;;14.45;100.00
7407;BME280;3745;56.964;24.128;2023-05-02T07:19:40;100874.75;;;14.23;100.00
7407;BME280;3745;56.964;24.128;2023-05-02T07:22:06;100755.16;;;13.39;100.00
7407;BME280;3745;56.964;24.128;2023-05-02T07:24:32;100823.00;;;13.95;100.00
7407;BME280;3745;56.964;24.128;2023-05-02T07:27:01;100768.75;;;13.69;100.00
7407;BME280;3745;56.964;24.128;2023-05-02T07:29:27;100907.88;;;14.57;100.00
7407;BME280;3745;56.964;24.128;2023-05-02T07:31:53;100809.44;;;14.11;100.00
7407;BME280;3745;56.964;24.128;2023-05-02T07:34:21;100905.28;;;14.82;100.00
7407;BME280;3745;56.964;24.128;2023-05-02T07:36:47;100834.84;;;14.62;100.00
7407;BME280;3745;56.964;24.128;2023-05-02T07:39:14;100655.19;;;13.49;100.00
7407;BME280;3745;56.964;24.128;2023-05-02T07:41:42;100898.47;;;14.87;100.00
7407;BME280;3745;56.964;24.128;2023-05-02T07:44:08;100760.22;;;14.39;100.00
7407;BME280;3745;56.964;24.128;2023-05-02T07:46:36;100812.69;;;14.80;100.00
7407;BME280;3745;56.964;24.128;2023-05-02T07:49:02;100799.03;;;14.99;100.00
7407;BME280;3745;56.964;24.128;2023-05-02T07:51:28;100777.75;;;15.09;100.00
7407;BME280;3745;56.964;24.128;2023-05-02T07:54:14;100742.75;;;15.29;100.00
7407;BME280;3745;56.964;24.128;2023-05-02T07:56:43;100759.78;;;15.27;97.57
7407;BME280;3745;56.964;24.128;2023-05-02T07:59:11;100822.44;;;15.70;99.17
7407;BME280;3745;56.964;24.128;2023-05-02T08:01:39;100888.53;;;16.04;98.14
7407;BME280;3745;56.964;24.128;2023-05-02T08:04:11;100881.69;;;16.09;96.52
7407;BME280;3745;56.964;24.128;2023-05-02T08:06:37;100891.97;;;16.00;97.44
7407;BME280;3745;56.964;24.128;2023-05-02T08:09:03;100886.91;;;15.94;99.50
7407;BME280;3745;56.964;24.128;2023-05-02T08:11:31;100732.50;;;15.38;98.06
7407;BME280;3745;56.964;24.128;2023-05-02T08:13:57;100745.91;;;15.67;96.19
7407;BME280;3745;56.964;24.128;2023-05-02T08:16:23;100652.03;;;15.04;95.69
7407;BME280;3745;56.964;24.128;2023-05-02T08:18:52;100671.47;;;15.14;95.52
7407;BME280;3745;56.964;24.128;2023-05-02T08:21:18;100822.13;;;16.07;95.65
7407;BME280;3745;56.964;24.128;2023-05-02T08:23:47;100864.31;;;16.50;92.70
7407;BME280;3745;56.964;24.128;2023-05-02T08:26:15;100783.06;;;16.02;91.66
7407;BME280;3745;56.964;24.128;2023-05-02T08:28:43;100847.25;;;16.55;93.07
7407;BME280;3745;56.964;24.128;2023-05-02T08:31:12;100887.91;;;16.76;92.31
7407;BME280;3745;56.964;24.128;2023-05-02T08:33:43;100872.25;;;17.07;93.61
7407;BME280;3745;56.964;24.128;2023-05-02T08:36:14;100826.66;;;16.67;91.56
7407;BME280;3745;56.964;24.128;2023-05-02T08:38:46;100690.16;;;16.15;91.32
7407;BME280;3745;56.964;24.128;2023-05-02T08:41:17;100876.13;;;17.37;89.72
7407;BME280;3745;56.964;24.128;2023-05-02T08:43:44;100641.06;;;15.90;91.34
7407;BME280;3745;56.964;24.128;2023-05-02T08:46:12;100870.22;;;17.30;89.80
7407;BME280;3745;56.964;24.128;2023-05-02T08:48:40;100730.59;;;16.50;88.79
7407;BME280;3745;56.964;24.128;2023-05-02T08:51:11;100671.19;;;16.34;88.30
7407;BME280;3745;56.964;24.128;2023-05-02T08:53:44;100681.16;;;16.55;88.48
7407;BME280;3745;56.964;24.128;2023-05-02T08:56:11;100728.28;;;16.99;88.53
7407;BME280;3745;56.964;24.128;2023-05-02T08:58:39;100719.06;;;16.89;87.25
7407;BME280;3745;56.964;24.128;2023-05-02T09:01:18;100691.16;;;16.72;88.15
7407;BME280;3745;56.964;24.128;2023-05-02T09:03:47;100733.47;;;16.94;87.39
7407;BME280;3745;56.964;24.128;2023-05-02T09:06:17;100850.69;;;17.85;87.65
7407;BME280;3745;56.964;24.128;2023-05-02T09:08:44;100864.72;;;17.60;86.89
7407;BME280;3745;56.964;24.128;2023-05-02T09:11:11;100711.53;;;16.79;87.81
7407;BME280;3745;56.964;24.128;2023-05-02T09:13:42;100657.53;;;16.37;88.95
7407;BME280;3745;56.964;24.128;2023-05-02T09:16:16;100661.34;;;16.72;89.44
7407;BME280;3745;56.964;24.128;2023-05-02T09:18:50;100848.94;;;17.87;87.73
7407;BME280;3745;56.964;24.128;2023-05-02T09:21:34;100786.66;;;17.29;89.17
7407;BME280;3745;56.964;24.128;2023-05-02T09:24:01;100847.75;;;17.56;87.65
7407;BME280;3745;56.964;24.128;2023-05-02T09:26:33;100687.16;;;16.50;89.10
7407;BME280;3745;56.964;24.128;2023-05-02T09:29:01;100700.75;;;16.53;90.27
7407;BME280;3745;56.964;24.128;2023-05-02T09:31:31;100747.91;;;16.97;90.46
7407;BME280;3745;56.964;24.128;2023-05-02T09:34:19;100835.72;;;17.61;89.28
7407;BME280;3745;56.964;24.128;2023-05-02T09:36:50;100721.38;;;17.07;87.88
7407;BME280;3745;56.964;24.128;2023-05-02T09:39:27;100685.22;;;16.71;87.69
7407;BME280;3745;56.964;24.128;2023-05-02T09:41:57;100592.44;;;16.01;88.75
7407;BME280;3745;56.964;24.128;2023-05-02T09:44:25;100611.13;;;16.03;89.90
7407;BME280;3745;56.964;24.128;2023-05-02T09:46:55;100695.59;;;16.59;88.99
7407;BME280;3745;56.964;24.128;2023-05-02T09:49:44;100836.19;;;17.25;90.39
7407;BME280;3745;56.964;24.128;2023-05-02T09:52:22;100750.41;;;17.03;89.82
7407;BME280;3745;56.964;24.128;2023-05-02T09:54:48;100835.53;;;17.73;89.75
7407;BME280;3745;56.964;24.128;2023-05-02T09:57:20;100732.97;;;17.27;89.08
7407;BME280;3745;56.964;24.128;2023-05-02T09:59:59;100816.50;;;17.90;88.55
7407;BME280;3745;56.964;24.128;2023-05-02T10:02:29;100809.53;;;17.98;85.57
7407;BME280;3745;56.964;24.128;2023-05-02T10:04:55;100731.94;;;17.39;86.36
7407;BME280;3745;56.964;24.128;2023-05-02T10:07:24;100836.88;;;17.96;87.00
7407;BME280;3745;56.964;24.128;2023-05-02T10:09:53;100829.03;;;18.05;84.96
7407;BME280;3745;56.964;24.128;2023-05-02T10:12:25;100703.19;;;17.25;84.55
7407;BME280;3745;56.964;24.128;2023-05-02T10:15:02;100830.97;;;17.92;83.60
7407;BME280;3745;56.964;24.128;2023-05-02T10:21:00;100678.41;;;16.70;89.19
7407;BME280;3745;56.964;24.128;2023-05-02T10:23:29;100684.81;;;16.99;86.38
7407;BME280;3745;56.964;24.128;2023-05-02T10:25:57;100811.13;;;18.05;83.76
7407;BME280;3745;56.964;24.128;2023-05-02T10:28:25;100780.66;;;17.90;83.33
7407;BME280;3745;56.964;24.128;2023-05-02T10:30:50;100795.53;;;18.17;84.37
7407;BME280;3745;56.964;24.128;2023-05-02T10:33:19;100810.25;;;18.53;83.65
7407;BME280;3745;56.964;24.128;2023-05-02T10:35:49;100812.44;;;18.27;83.44
7407;BME280;3745;56.964;24.128;2023-05-02T10:38:27;100605.31;;;17.14;84.78
7407;BME280;3745;56.964;24.128;2023-05-02T10:40:56;100789.78;;;18.03;85.19
7407;BME280;3745;56.964;24.128;2023-05-02T10:43:31;100808.63;;;18.46;84.47
7407;BME280;3745;56.964;24.128;2023-05-02T10:45:58;100636.53;;;17.34;85.54
7407;BME280;3745;56.964;24.128;2023-05-02T10:48:27;100750.81;;;18.33;84.35
7407;BME280;3745;56.964;24.128;2023-05-02T10:50:54;100808.44;;;18.58;83.68
7407;BME280;3745;56.964;24.128;2023-05-02T10:56:10;100667.88;;;17.96;83.95
7407;BME280;3745;56.964;24.128;2023-05-02T10:58:40;100735.34;;;18.39;82.69
7407;BME280;3745;56.964;24.128;2023-05-02T11:01:33;100796.84;;;18.39;83.60
7407;BME280;3745;56.964;24.128;2023-05-02T11:04:10;100808.19;;;18.24;84.37
7407;BME280;3745;56.964;24.128;2023-05-02T11:11:47;100799.59;;;17.79;87.32
7407;BME280;3745;56.964;24.128;2023-05-02T11:22:32;100813.53;;;17.60;90.56
7407;BME280;3745;56.964;24.128;2023-05-02T11:24:58;100645.38;;;16.57;91.64
7407;BME280;3745;56.964;24.128;2023-05-02T11:30:10;100566.25;;;15.87;94.38
7407;BME280;3745;56.964;24.128;2023-05-02T11:35:18;100811.97;;;17.50;94.90
7407;BME280;3745;56.964;24.128;2023-05-02T11:37:58;100781.72;;;17.17;95.32
7407;BME280;3745;56.964;24.128;2023-05-02T11:40:28;100821.53;;;17.38;95.95
7407;BME280;3745;56.964;24.128;2023-05-02T11:42:55;100825.97;;;17.25;95.81
7407;BME280;3745;56.964;24.128;2023-05-02T11:45:32;100817.66;;;17.08;96.83
7407;BME280;3745;56.964;24.128;2023-05-02T11:47:58;100836.41;;;17.10;100.00
7407;BME280;3745;56.964;24.128;2023-05-02T11:50:30;100728.13;;;16.45;100.00
7407;BME280;3745;56.964;24.128;2023-05-02T11:52:58;100752.56;;;16.67;100.00
7407;BME280;3745;56.964;24.128;2023-05-02T11:55:24;100839.56;;;17.27;100.00
7407;BME280;3745;56.964;24.128;2023-05-02T11:58:05;100846.28;;;17.37;100.00
7407;BME280;3745;56.964;24.128;2023-05-02T12:00:36;100811.63;;;17.13;99.96
7407;BME280;3745;56.964;24.128;2023-05-02T12:03:02;100827.72;;;17.20;100.00
7407;BME280;3745;56.964;24.128;2023-05-02T12:05:28;100601.09;;;15.88;100.00
7407;BME280;3745;56.964;24.128;2023-05-02T12:07:54;100655.25;;;16.14;100.00
7407;BME280;3745;56.964;24.128;2023-05-02T12:10:20;100693.97;;;16.49;99.52
7407;BME280;3745;56.964;24.128;2023-05-02T12:12:46;100649.94;;;16.32;99.82
7407;BME280;3745;56.964;24.128;2023-05-02T12:15:15;100846.81;;;17.60;99.90
7407;BME280;3745;56.964;24.128;2023-05-02T12:17:47;100590.75;;;16.00;100.00
7407;BME280;3745;56.964;24.128;2023-05-02T12:20:16;100745.50;;;16.88;100.00
7407;BME280;3745;56.964;24.128;2023-05-02T12:22:45;100849.81;;;17.27;99.67
7407;BME280;3745;56.964;24.128;2023-05-02T12:25:11;100585.22;;;15.63;100.00
7407;BME280;3745;56.964;24.128;2023-05-02T12:27:38;100643.63;;;15.89;100.00
7407;BME280;3745;56.964;24.128;2023-05-02T12:30:23;100712.22;;;16.20;100.00
7407;BME280;3745;56.964;24.128;2023-05-02T12:33:10;100642.03;;;15.79;94.86
7407;BME280;3745;56.964;24.128;2023-05-02T12:35:35;100723.34;;;16.12;88.14
7407;BME280;3745;56.964;24.128;2023-05-02T12:38:18;100830.72;;;16.87;86.92
7407;BME280;3745;56.964;24.128;2023-05-02T12:40:52;100862.13;;;16.98;85.26
7407;BME280;3745;56.964;24.128;2023-05-02T12:43:23;100923.63;;;16.86;97.95
7407;BME280;3745;56.964;24.128;2023-05-02T12:45:49;100951.81;;;15.53;100.00
7407;BME280;3745;56.964;24.128;2023-05-02T12:48:20;100963.91;;;14.33;100.00
7407;BME280;3745;56.964;24.128;2023-05-02T12:50:46;100708.91;;;12.00;100.00
7407;BME280;3745;56.964;24.128;2023-05-02T12:53:12;100818.50;;;11.63;100.00
7407;BME280;3745;56.964;24.128;2023-05-02T12:55:38;100985.41;;;12.02;100.00
7407;BME280;3745;56.964;24.128;2023-05-02T12:58:05;101040.03;;;11.74;100.00
7407;BME280;3745;56.964;24.128;2023-05-02T13:00:34;101071.44;;;11.26;100.00
7407;BME280;3745;56.964;24.128;2023-05-02T13:03:02;101099.78;;;11.01;100.00
7407;BME280;3745;56.964;24.128;2023-05-02T13:05:27;101075.53;;;10.66;100.00
7407;BME280;3745;56.964;24.128;2023-05-02T13:07:53;101109.41;;;10.74;100.00
7407;BME280;3745;56.964;24.128;2023-05-02T13:10:21;101124.38;;;10.62;100.00
7407;BME280;3745;56.964;24.128;2023-05-02T13:12:49;101097.00;;;10.40;100.00
7407;BME280;3745;56.964;24.128;2023-05-02T13:15:15;101117.28;;;10.43;100.00
7407;BME280;3745;56.964;24.128;2023-05-02T13:17:40;101140.88;;;10.42;100.00
7407;BME280;3745;56.964;24.128;2023-05-02T13:20:07;101153.41;;;10.36;100.00
7407;BME280;3745;56.964;24.128;2023-05-02T13:22:33;101081.41;;;9.79;100.00
7407;BME280;3745;56.964;24.128;2023-05-02T13:24:59;101008.66;;;9.24;100.00
7407;BME280;3745;56.964;24.128;2023-05-02T13:27:25;101167.22;;;10.12;100.00
7407;BME280;3745;56.964;24.128;2023-05-02T13:29:51;101176.56;;;10.13;100.00
7407;BME280;3745;56.964;24.128;2023-05-02T13:32:17;101171.75;;;9.88;100.00
7407;BME280;3745;56.964;24.128;2023-05-02T13:34:43;101135.75;;;9.61;100.00
7407;BME280;3745;56.964;24.128;2023-05-02T13:37:09;101105.56;;;9.30;100.00
7407;BME280;3745;56.964;24.128;2023-05-02T13:39:35;101155.41;;;9.37;100.00
7407;BME280;3745;56.964;24.128;2023-05-02T13:42:03;101136.34;;;9.13;100.00
7407;BME280;3745;56.964;24.128;2023-05-02T13:44:29;101241.81;;;9.58;100.00
7407;BME280;3745;56.964;24.128;2023-05-02T13:46:55;101224.72;;;9.48;100.00
7407;BME280;3745;56.964;24.128;2023-05-02T13:49:21;101208.88;;;9.20;100.00
7407;BME280;3745;56.964;24.128;2023-05-02T13:51:47;101241.00;;;9.26;100.00